Time;durP1;ratioP1;P1;durP2;ratioP2;P2;SDS_P1;SDS_P2;PMS_P1;PMS_P2;Temp;Humidity;BMP_temperature;BMP_pressure;BME280_temperature;BME280_humidity;BME280_pressure;Samples;Min_cycle;Max_cycle;Signal;HPM_P1;HPM_P2
2023/06/17 00:01:07;;;;;;;5.65;4.60;;;;;;;;;;5095180;28;20436;-75
2023/06/17 00:03:34;;;;;;;4.93;4.30;;;;;;;;;;5096477;28;20465;-76
2023/06/17 00:06:01;;;;;;;5.30;4.80;;;;;;;;;;5102851;28;20451;-76
2023/06/17 00:08:28;;;;;;;5.50;4.40;;;;;;;;;;5092492;28;20409;-76
2023/06/17 00:10:55;;;;;;;5.05;4.55;;;;;;;;;;5099622;28;20428;-76
2023/06/17 00:13:22;;;;;;;5.80;4.90;;;;;;;;;;5106310;27;20414;-76
2023/06/17 00:15:53;;;;;;;5.85;4.65;;;;;;;;;;5101291;28;20439;-76
2023/06/17 00:18:22;;;;;;;5.15;4.65;;;;;;;;;;5094344;28;20422;-76
2023/06/17 00:20:52;;;;;;;6.03;4.55;;;;;;;;;;5087568;28;20881;-75
2023/06/17 00:23:20;;;;;;;5.80;4.30;;;;;;;;;;5085508;28;20486;-75
2023/06/17 00:25:47;;;;;;;5.10;4.40;;;;;;;;;;5099297;28;20902;-76
2023/06/17 00:28:14;;;;;;;4.97;4.47;;;;;;;;;;5094253;28;20754;-76
2023/06/17 00:30:41;;;;;;;5.53;4.88;;;;;;;;;;5103306;28;20808;-75
2023/06/17 00:33:09;;;;;;;4.93;4.53;;;;;;;;;;5083129;28;20576;-75
2023/06/17 00:35:36;;;;;;;4.90;4.40;;;;;;;;;;5087621;28;20430;-76
2023/06/17 00:38:04;;;;;;;5.47;4.88;;;;;;;;;;5099853;28;20734;-76
2023/06/17 00:40:31;;;;;;;5.13;4.43;;;;;;;;;;5090275;28;20427;-76
2023/06/17 00:42:58;;;;;;;5.00;4.50;;;;;;;;;;5088771;28;20430;-76
2023/06/17 00:45:25;;;;;;;4.90;4.50;;;;;;;;;;5088808;28;20432;-76
2023/06/17 00:47:52;;;;;;;5.10;4.67;;;;;;;;;;5100914;28;20473;-76
2023/06/17 00:50:21;;;;;;;5.38;4.88;;;;;;;;;;5093250;28;20435;-76
2023/06/17 00:52:49;;;;;;;6.57;5.03;;;;;;;;;;5093275;28;20603;-75
2023/06/17 00:55:16;;;;;;;5.47;4.60;;;;;;;;;;5104222;27;20514;-76
2023/06/17 00:57:45;;;;;;;6.45;5.40;;;;;;;;;;5099134;28;20416;-76
2023/06/17 01:00:15;;;;;;;5.95;5.13;;;;;;;;;;5101819;28;21027;-74
2023/06/17 01:02:44;;;;;;;6.18;5.40;;;;;;;;;;5103367;28;20540;-75
2023/06/17 01:05:13;;;;;;;6.15;5.35;;;;;;;;;;5104552;28;20424;-76
2023/06/17 01:07:50;;;;;;;6.72;5.82;;;;;;;;;;5090256;28;20495;-75
2023/06/17 01:10:19;;;;;;;6.30;5.70;;;;;;;;;;5104075;28;20420;-76
2023/06/17 01:12:47;;;;;;;7.20;5.70;;;;;;;;;;5095714;28;20414;-74
2023/06/17 01:15:16;;;;;;;6.60;6.00;;;;;;;;;;5093753;28;20425;-76
2023/06/17 01:17:44;;;;;;;6.65;5.63;;;;;;;;;;5103619;28;20975;-74
2023/06/17 01:20:12;;;;;;;6.32;5.75;;;;;;;;;;5094680;28;20416;-76
2023/06/17 01:22:41;;;;;;;6.30;5.70;;;;;;;;;;5092239;28;20445;-76
2023/06/17 01:25:13;;;;;;;8.10;6.10;;;;;;;;;;5094221;28;20519;-75
2023/06/17 01:27:41;;;;;;;7.22;6.53;;;;;;;;;;5091988;27;20430;-76
2023/06/17 01:30:09;;;;;;;6.60;5.90;;;;;;;;;;5095035;28;20888;-76
2023/06/17 01:32:36;;;;;;;7.60;6.15;;;;;;;;;;5092956;28;20438;-76
2023/06/17 01:35:05;;;;;;;6.85;6.15;;;;;;;;;;5104019;28;20424;-75
2023/06/17 01:37:36;;;;;;;7.30;6.57;;;;;;;;;;5098195;28;20431;-75
2023/06/17 01:40:04;;;;;;;6.85;6.15;;;;;;;;;;5092946;28;20418;-76
2023/06/17 01:42:36;;;;;;;7.30;6.60;;;;;;;;;;5094695;28;20839;-75
2023/06/17 01:45:05;;;;;;;6.80;6.10;;;;;;;;;;5103255;28;20412;-74
2023/06/17 01:47:32;;;;;;;8.50;6.70;;;;;;;;;;5094192;28;20506;-74
2023/06/17 01:49:59;;;;;;;6.85;6.15;;;;;;;;;;5097079;28;20416;-75
2023/06/17 01:52:27;;;;;;;7.38;6.60;;;;;;;;;;5096910;28;20556;-76
2023/06/17 01:54:54;;;;;;;7.80;7.00;;;;;;;;;;5090076;28;20416;-76
2023/06/17 01:57:21;;;;;;;8.63;7.82;;;;;;;;;;5100585;28;20420;-75
2023/06/17 01:59:49;;;;;;;8.70;7.80;;;;;;;;;;5098565;28;20447;-76
2023/06/17 02:02:17;;;;;;;8.15;7.45;;;;;;;;;;5097651;28;20425;-76
2023/06/17 02:04:44;;;;;;;9.27;8.38;;;;;;;;;;5091373;28;20488;-75
2023/06/17 02:07:11;;;;;;;9.20;8.40;;;;;;;;;;5091419;28;20429;-75
2023/06/17 02:09:38;;;;;;;9.38;8.48;;;;;;;;;;5086614;28;20773;-76
2023/06/17 02:12:06;;;;;;;9.07;8.27;;;;;;;;;;5093730;28;20412;-75
2023/06/17 02:14:33;;;;;;;9.50;8.60;;;;;;;;;;5094937;28;20442;-76
2023/06/17 02:17:03;;;;;;;9.00;8.10;;;;;;;;;;5097894;28;20532;-76
2023/06/17 02:19:31;;;;;;;9.35;8.55;;;;;;;;;;5097195;28;20780;-76
2023/06/17 02:21:59;;;;;;;8.98;8.25;;;;;;;;;;5093940;28;20489;-76
2023/06/17 02:24:27;;;;;;;7.93;7.23;;;;;;;;;;5095347;28;20415;-76
2023/06/17 02:26:54;;;;;;;7.68;6.88;;;;;;;;;;5102582;28;20458;-76
2023/06/17 02:29:21;;;;;;;6.97;6.28;;;;;;;;;;5100457;28;20416;-76
2023/06/17 02:31:48;;;;;;;7.00;6.30;;;;;;;;;;5092777;28;20449;-76
2023/06/17 02:34:17;;;;;;;7.00;6.30;;;;;;;;;;5047681;22;20449;-75
2023/06/17 02:36:44;;;;;;;7.80;6.35;;;;;;;;;;5011893;28;20431;-74
2023/06/17 02:39:11;;;;;;;7.07;6.25;;;;;;;;;;5002805;28;20856;-72
2023/06/17 02:41:38;;;;;;;7.38;6.68;;;;;;;;;;5005727;28;20456;-76
2023/06/17 02:44:06;;;;;;;8.07;6.45;;;;;;;;;;5008880;28;20444;-74
2023/06/17 02:46:33;;;;;;;6.75;6.15;;;;;;;;;;4998086;28;20790;-75
2023/06/17 02:49:00;;;;;;;7.10;6.40;;;;;;;;;;5016832;28;20457;-73
2023/06/17 02:51:29;;;;;;;7.38;6.68;;;;;;;;;;5008137;28;20433;-74
2023/06/17 02:53:56;;;;;;;8.70;6.85;;;;;;;;;;5010451;28;20461;-73
2023/06/17 02:56:23;;;;;;;6.28;5.68;;;;;;;;;;5026813;28;20461;-73
2023/06/17 02:58:50;;;;;;;6.90;6.20;;;;;;;;;;4993714;28;20411;-73
2023/06/17 03:01:18;;;;;;;6.47;5.88;;;;;;;;;;4992310;28;20443;-76
2023/06/17 03:03:45;;;;;;;6.90;6.22;;;;;;;;;;4989444;28;20434;-74
2023/06/17 03:06:13;;;;;;;8.23;6.97;;;;;;;;;;5008732;28;20771;-75
2023/06/17 03:08:42;;;;;;;8.63;7.83;;;;;;;;;;4996120;28;20493;-75
2023/06/17 03:11:09;;;;;;;8.30;7.50;;;;;;;;;;4985476;28;20446;-74
2023/06/17 03:13:36;;;;;;;9.18;8.18;;;;;;;;;;4995758;28;20430;-74
2023/06/17 03:16:05;;;;;;;9.35;8.40;;;;;;;;;;4991871;28;20431;-74
2023/06/17 03:18:32;;;;;;;9.10;8.20;;;;;;;;;;4986932;28;20438;-74
2023/06/17 03:21:00;;;;;;;9.32;8.45;;;;;;;;;;4988499;28;20436;-75
2023/06/17 03:23:28;;;;;;;10.18;8.80;;;;;;;;;;4997511;28;20443;-73
2023/06/17 03:25:56;;;;;;;9.70;8.80;;;;;;;;;;5000871;28;20473;-73
2023/06/17 03:28:23;;;;;;;9.30;8.40;;;;;;;;;;5013554;28;20431;-74
2023/06/17 03:30:52;;;;;;;9.85;8.85;;;;;;;;;;4992015;28;20512;-73
2023/06/17 03:33:19;;;;;;;8.93;8.13;;;;;;;;;;4994855;28;20494;-74
2023/06/17 03:35:46;;;;;;;9.50;8.60;;;;;;;;;;4984596;28;20436;-75
2023/06/17 03:38:13;;;;;;;10.10;9.10;;;;;;;;;;4987325;28;20439;-74
2023/06/17 03:40:40;;;;;;;9.63;8.70;;;;;;;;;;4985930;28;20434;-73
2023/06/17 03:43:09;;;;;;;11.27;9.30;;;;;;;;;;5046925;28;20437;-74
2023/06/17 03:45:36;;;;;;;9.75;8.80;;;;;;;;;;5004173;28;20434;-74
2023/06/17 03:48:03;;;;;;;10.05;9.15;;;;;;;;;;5018058;28;20423;-73
2023/06/17 03:50:31;;;;;;;10.57;9.57;;;;;;;;;;4986328;28;20500;-75
2023/06/17 03:52:58;;;;;;;10.60;9.60;;;;;;;;;;4990070;28;20602;-75
2023/06/17 03:55:25;;;;;;;9.50;8.70;;;;;;;;;;4985126;28;20435;-73
2023/06/17 03:57:53;;;;;;;10.25;9.27;;;;;;;;;;4991398;28;20470;-74
2023/06/17 04:00:22;;;;;;;11.23;9.18;;;;;;;;;;4991716;28;20442;-76
2023/06/17 04:02:49;;;;;;;10.93;9.73;;;;;;;;;;5013587;28;20414;-75
2023/06/17 04:05:17;;;;;;;10.10;9.20;;;;;;;;;;4988994;28;20483;-74
2023/06/17 04:07:46;;;;;;;9.73;8.83;;;;;;;;;;5006752;28;20415;-74
2023/06/17 04:10:13;;;;;;;10.27;9.27;;;;;;;;;;5013794;28;20700;-72
2023/06/17 04:12:43;;;;;;;11.00;9.90;;;;;;;;;;5014353;28;20429;-74
2023/06/17 04:15:10;;;;;;;11.00;9.80;;;;;;;;;;4976490;28;20438;-73
2023/06/17 04:17:39;;;;;;;10.52;9.63;;;;;;;;;;4984586;28;20430;-74
2023/06/17 04:20:10;;;;;;;10.43;9.43;;;;;;;;;;4975948;28;20460;-74
2023/06/17 04:22:39;;;;;;;10.82;9.27;;;;;;;;;;4992501;28;20445;-76
2023/06/17 04:25:06;;;;;;;10.53;9.53;;;;;;;;;;5041867;28;20505;-74
2023/06/17 04:27:33;;;;;;;11.23;10.23;;;;;;;;;;5005912;28;20426;-74
2023/06/17 04:30:01;;;;;;;10.80;9.80;;;;;;;;;;4988027;28;20484;-74
2023/06/17 04:32:28;;;;;;;11.60;10.50;;;;;;;;;;5013053;28;20530;-73
2023/06/17 04:34:56;;;;;;;10.75;9.80;;;;;;;;;;5000132;28;20435;-74
2023/06/17 04:37:25;;;;;;;10.80;9.80;;;;;;;;;;4994113;28;20438;-73
2023/06/17 04:39:53;;;;;;;11.40;10.40;;;;;;;;;;4994957;28;20926;-73
2023/06/17 04:42:20;;;;;;;11.38;10.38;;;;;;;;;;5006261;28;20426;-75
2023/06/17 04:44:48;;;;;;;11.35;10.35;;;;;;;;;;4991713;28;20481;-76
2023/06/17 04:47:16;;;;;;;10.70;9.70;;;;;;;;;;4998607;28;20923;-74
2023/06/17 04:49:44;;;;;;;11.60;10.50;;;;;;;;;;4990314;28;20422;-74
2023/06/17 04:52:13;;;;;;;11.43;10.23;;;;;;;;;;4985063;28;20442;-75
2023/06/17 04:54:40;;;;;;;11.10;10.10;;;;;;;;;;4988700;28;20948;-74
2023/06/17 04:57:07;;;;;;;11.07;10.07;;;;;;;;;;5003869;28;20486;-75
2023/06/17 04:59:34;;;;;;;11.52;10.32;;;;;;;;;;4988207;28;20433;-75
2023/06/17 05:02:01;;;;;;;11.80;10.80;;;;;;;;;;4995415;28;20438;-76
2023/06/17 05:04:29;;;;;;;11.95;10.85;;;;;;;;;;4986752;28;20847;-74
2023/06/17 05:06:56;;;;;;;11.20;10.20;;;;;;;;;;5003906;28;20451;-73
2023/06/17 05:09:25;;;;;;;10.30;9.40;;;;;;;;;;5013257;28;20417;-73
2023/06/17 05:11:52;;;;;;;10.40;9.40;;;;;;;;;;5028041;28;20411;-72
2023/06/17 05:14:19;;;;;;;10.65;9.48;;;;;;;;;;5009685;28;20424;-74
2023/06/17 05:16:46;;;;;;;10.50;9.60;;;;;;;;;;5009393;28;20434;-74
2023/06/17 05:19:13;;;;;;;10.98;10.07;;;;;;;;;;5015279;28;20421;-73
2023/06/17 05:21:40;;;;;;;10.70;9.80;;;;;;;;;;5016173;28;20932;-74
2023/06/17 05:24:07;;;;;;;11.13;10.13;;;;;;;;;;5006922;28;20860;-74
2023/06/17 05:26:36;;;;;;;10.80;9.90;;;;;;;;;;5007080;28;20430;-74
2023/06/17 05:29:03;;;;;;;10.80;9.80;;;;;;;;;;4986993;28;20575;-74
2023/06/17 05:31:30;;;;;;;11.20;10.20;;;;;;;;;;4991845;28;20485;-74
2023/06/17 05:33:57;;;;;;;11.40;10.30;;;;;;;;;;4998883;28;20800;-74
2023/06/17 05:36:24;;;;;;;10.40;9.40;;;;;;;;;;4990975;28;20443;-74
2023/06/17 05:38:51;;;;;;;10.95;9.85;;;;;;;;;;4985400;28;20442;-74
2023/06/17 05:41:18;;;;;;;11.13;10.13;;;;;;;;;;5007785;28;20420;-73
2023/06/17 05:43:48;;;;;;;11.63;10.63;;;;;;;;;;5001089;28;20419;-74
2023/06/17 05:46:15;;;;;;;10.48;9.63;;;;;;;;;;4984901;28;20429;-75
2023/06/17 05:48:42;;;;;;;10.55;9.45;;;;;;;;;;4990451;28;20418;-74
2023/06/17 05:51:09;;;;;;;10.80;9.80;;;;;;;;;;4987659;28;20473;-75
2023/06/17 05:53:36;;;;;;;11.15;10.15;;;;;;;;;;4986235;28;20829;-73
2023/06/17 05:56:03;;;;;;;11.18;10.20;;;;;;;;;;4993556;28;20434;-73
2023/06/17 05:58:30;;;;;;;11.40;10.30;;;;;;;;;;4988062;28;20858;-74
2023/06/17 06:00:58;;;;;;;11.00;10.00;;;;;;;;;;4995732;28;20439;-76
2023/06/17 06:03:26;;;;;;;10.60;9.70;;;;;;;;;;5000319;28;20445;-75
2023/06/17 06:05:53;;;;;;;10.38;9.35;;;;;;;;;;5022761;28;20436;-74
2023/06/17 06:08:20;;;;;;;11.00;9.93;;;;;;;;;;4991934;28;20491;-67
2023/06/17 06:10:47;;;;;;;10.98;10.00;;;;;;;;;;4982918;28;20438;-66
2023/06/17 06:13:14;;;;;;;10.90;9.90;;;;;;;;;;4995313;28;20906;-67
2023/06/17 06:15:41;;;;;;;10.43;9.50;;;;;;;;;;4998551;28;20924;-67
2023/06/17 06:18:09;;;;;;;10.05;9.10;;;;;;;;;;4984890;28;20427;-68
2023/06/17 06:20:37;;;;;;;11.27;10.23;;;;;;;;;;4989273;28;20970;-65
2023/06/17 06:23:04;;;;;;;11.20;10.20;;;;;;;;;;4989625;28;20438;-66
2023/06/17 06:25:32;;;;;;;10.60;9.60;;;;;;;;;;4998600;28;20820;-66
2023/06/17 06:27:59;;;;;;;10.52;9.63;;;;;;;;;;4999807;28;20928;-66
2023/06/17 06:30:26;;;;;;;11.38;10.00;;;;;;;;;;4994458;28;20475;-67
2023/06/17 06:32:53;;;;;;;10.68;9.68;;;;;;;;;;5019682;28;20449;-65
2023/06/17 06:35:22;;;;;;;11.02;10.10;;;;;;;;;;5005247;28;20459;-68
2023/06/17 06:37:49;;;;;;;10.80;9.80;;;;;;;;;;4983728;28;20430;-66
2023/06/17 06:40:16;;;;;;;10.73;9.73;;;;;;;;;;4987930;28;20959;-65
2023/06/17 06:42:43;;;;;;;11.10;10.00;;;;;;;;;;5029063;28;20437;-68
2023/06/17 06:45:11;;;;;;;10.50;9.40;;;;;;;;;;4990590;28;20432;-67
2023/06/17 06:47:38;;;;;;;10.40;9.50;;;;;;;;;;5003859;28;20499;-67
2023/06/17 06:50:06;;;;;;;11.27;10.18;;;;;;;;;;4990868;28;20436;-68
2023/06/17 06:52:34;;;;;;;10.50;9.20;;;;;;;;;;4985009;28;20474;-68
2023/06/17 06:55:01;;;;;;;10.27;9.30;;;;;;;;;;5001847;28;20854;-69
2023/06/17 06:57:29;;;;;;;10.43;9.45;;;;;;;;;;4997148;28;20840;-69
2023/06/17 06:59:56;;;;;;;10.88;9.77;;;;;;;;;;4988318;28;20957;-69
2023/06/17 07:02:23;;;;;;;10.10;9.10;;;;;;;;;;4984585;28;20460;-68
2023/06/17 07:04:50;;;;;;;9.90;9.00;;;;;;;;;;4987113;28;20782;-68
2023/06/17 07:07:17;;;;;;;9.57;8.68;;;;;;;;;;4998373;28;20460;-69
2023/06/17 07:09:45;;;;;;;8.90;8.10;;;;;;;;;;4997137;28;20422;-68
2023/06/17 07:12:12;;;;;;;9.02;8.23;;;;;;;;;;4994106;28;20457;-68
2023/06/17 07:14:39;;;;;;;8.90;8.00;;;;;;;;;;5009426;28;20434;-68
2023/06/17 07:17:06;;;;;;;8.40;7.63;;;;;;;;;;5033587;28;20434;-68
2023/06/17 07:19:33;;;;;;;8.40;7.70;;;;;;;;;;5027112;28;20437;-70
2023/06/17 07:22:01;;;;;;;8.00;7.30;;;;;;;;;;5011693;28;20946;-70
2023/06/17 07:24:28;;;;;;;9.07;7.78;;;;;;;;;;5035852;28;20887;-67
2023/06/17 07:26:56;;;;;;;8.25;7.45;;;;;;;;;;5010179;28;20419;-65
2023/06/17 07:29:23;;;;;;;8.60;7.80;;;;;;;;;;5007411;28;20424;-69
2023/06/17 07:31:50;;;;;;;9.13;7.75;;;;;;;;;;5000764;28;20498;-67
2023/06/17 07:34:17;;;;;;;8.80;7.90;;;;;;;;;;5015055;28;20393;-68
2023/06/17 07:36:44;;;;;;;8.80;7.90;;;;;;;;;;5009445;28;20418;-67
2023/06/17 07:39:12;;;;;;;8.10;7.30;;;;;;;;;;5005160;28;20498;-70
2023/06/17 07:41:39;;;;;;;8.02;7.30;;;;;;;;;;4993830;28;20443;-75
2023/06/17 07:44:07;;;;;;;8.50;7.72;;;;;;;;;;4990037;28;20445;-73
2023/06/17 07:46:34;;;;;;;8.23;7.43;;;;;;;;;;4991153;28;20439;-73
2023/06/17 07:49:02;;;;;;;8.25;7.35;;;;;;;;;;4987534;28;21884;-74
2023/06/17 07:51:29;;;;;;;7.70;7.00;;;;;;;;;;5004510;28;20442;-75
2023/06/17 07:53:56;;;;;;;7.60;6.90;;;;;;;;;;4991156;28;20932;-75
2023/06/17 07:56:23;;;;;;;7.60;6.80;;;;;;;;;;4987135;28;20435;-75
2023/06/17 07:58:50;;;;;;;7.43;6.72;;;;;;;;;;4985777;28;20938;-73
2023/06/17 08:01:18;;;;;;;7.80;7.10;;;;;;;;;;4988552;28;20432;-76
2023/06/17 08:03:45;;;;;;;7.38;6.60;;;;;;;;;;4988679;28;20439;-75
2023/06/17 08:06:14;;;;;;;7.10;6.50;;;;;;;;;;4984680;28;20448;-76
2023/06/17 08:08:41;;;;;;;7.10;6.40;;;;;;;;;;5002448;28;20433;-73
2023/06/17 08:11:08;;;;;;;6.60;6.10;;;;;;;;;;4991799;28;20462;-74
2023/06/17 08:13:35;;;;;;;7.28;6.68;;;;;;;;;;4991623;28;20434;-77
2023/06/17 08:16:02;;;;;;;8.77;7.00;;;;;;;;;;5005328;28;20465;-76
2023/06/17 08:18:31;;;;;;;7.13;6.43;;;;;;;;;;4996363;28;20958;-77
2023/06/17 08:20:58;;;;;;;6.78;5.57;;;;;;;;;;4991443;28;20434;-78
2023/06/17 08:23:25;;;;;;;7.18;6.57;;;;;;;;;;4996806;28;20495;-77
2023/06/17 08:25:52;;;;;;;6.75;6.15;;;;;;;;;;4996543;28;20464;-78
2023/06/17 08:28:20;;;;;;;5.53;5.03;;;;;;;;;;4994937;28;20523;-78
2023/06/17 08:30:49;;;;;;;6.00;5.40;;;;;;;;;;4991741;28;20449;-77
2023/06/17 08:33:16;;;;;;;6.10;5.60;;;;;;;;;;4990135;28;20431;-77
2023/06/17 08:35:45;;;;;;;6.50;5.40;;;;;;;;;;4997051;28;20521;-78
2023/06/17 08:38:12;;;;;;;5.15;4.65;;;;;;;;;;5000997;28;20944;-77
2023/06/17 08:40:39;;;;;;;7.10;4.57;;;;;;;;;;4997648;28;20446;-77
2023/06/17 08:43:07;;;;;;;4.70;4.30;;;;;;;;;;4998434;28;20429;-78
2023/06/17 08:45:34;;;;;;;5.15;4.00;;;;;;;;;;4996792;28;20439;-77
2023/06/17 08:48:04;;;;;;;6.90;4.00;;;;;;;;;;5027647;28;20505;-75
2023/06/17 08:50:32;;;;;;;5.65;4.30;;;;;;;;;;4997255;28;20438;-78
2023/06/17 08:53:00;;;;;;;4.90;4.40;;;;;;;;;;4996181;28;20437;-77
2023/06/17 08:55:27;;;;;;;4.50;4.10;;;;;;;;;;4995033;28;20817;-78
2023/06/17 08:57:54;;;;;;;4.40;4.00;;;;;;;;;;5000214;28;20939;-76
2023/06/17 09:00:21;;;;;;;4.90;4.30;;;;;;;;;;4989884;28;20461;-77
2023/06/17 09:02:49;;;;;;;4.70;4.30;;;;;;;;;;4996463;28;20811;-78
2023/06/17 09:05:16;;;;;;;6.10;4.20;;;;;;;;;;4996545;28;20428;-78
2023/06/17 09:07:43;;;;;;;4.80;4.40;;;;;;;;;;4998665;28;20442;-78
2023/06/17 09:10:16;;;;;;;4.85;4.45;;;;;;;;;;5000615;28;20434;-78
2023/06/17 09:12:43;;;;;;;4.80;4.30;;;;;;;;;;4998401;28;20431;-78
2023/06/17 09:15:17;;;;;;;4.93;4.50;;;;;;;;;;4988085;28;20438;-77
2023/06/17 09:17:45;;;;;;;5.32;4.82;;;;;;;;;;4987518;28;20435;-75
2023/06/17 09:20:13;;;;;;;5.55;4.57;;;;;;;;;;4988726;28;21167;-76
2023/06/17 09:22:41;;;;;;;5.70;4.90;;;;;;;;;;5006762;28;20434;-76
2023/06/17 09:25:11;;;;;;;5.30;4.80;;;;;;;;;;4986615;28;20513;-78
2023/06/17 09:27:45;;;;;;;5.70;5.20;;;;;;;;;;4993812;28;20430;-74
2023/06/17 09:30:13;;;;;;;5.40;4.90;;;;;;;;;;4980036;28;20993;-77
2023/06/17 09:32:40;;;;;;;5.22;4.70;;;;;;;;;;4985850;28;20507;-76
2023/06/17 09:35:08;;;;;;;5.47;4.50;;;;;;;;;;4988725;22;20448;-70
2023/06/17 09:37:36;;;;;;;4.93;4.47;;;;;;;;;;4954626;28;20918;-72
2023/06/17 09:40:05;;;;;;;5.50;5.00;;;;;;;;;;4971895;28;20442;-71
2023/06/17 09:42:33;;;;;;;5.43;4.75;;;;;;;;;;4973503;28;20537;-71
2023/06/17 09:45:03;;;;;;;5.55;5.05;;;;;;;;;;4957189;28;21094;-73
2023/06/17 09:47:33;;;;;;;4.80;4.40;;;;;;;;;;4996463;28;20432;-73
2023/06/17 09:50:03;;;;;;;4.97;4.50;;;;;;;;;;4958248;28;20499;-73
2023/06/17 09:52:31;;;;;;;5.20;4.80;;;;;;;;;;4999103;28;20426;-73
2023/06/17 09:54:58;;;;;;;5.85;4.88;;;;;;;;;;4965971;28;20455;-75
2023/06/17 09:57:31;;;;;;;5.40;4.77;;;;;;;;;;4964858;28;20434;-75
2023/06/17 10:00:00;;;;;;;7.40;4.70;;;;;;;;;;4960347;28;20451;-73
2023/06/17 10:02:28;;;;;;;4.90;4.50;;;;;;;;;;4960385;28;21099;-74
2023/06/17 10:04:55;;;;;;;5.43;4.78;;;;;;;;;;4960174;28;20438;-74
2023/06/17 10:07:25;;;;;;;5.03;4.60;;;;;;;;;;4967853;28;20504;-72
2023/06/17 10:09:52;;;;;;;4.80;4.18;;;;;;;;;;4957656;28;20437;-74
2023/06/17 10:12:20;;;;;;;5.40;4.85;;;;;;;;;;4962165;28;20424;-73
2023/06/17 10:14:49;;;;;;;5.20;4.03;;;;;;;;;;4959435;28;20444;-72
2023/06/17 10:17:17;;;;;;;5.23;4.30;;;;;;;;;;4954277;28;20547;-72
2023/06/17 10:19:47;;;;;;;4.50;3.67;;;;;;;;;;4963877;28;20510;-75
2023/06/17 10:22:16;;;;;;;3.88;3.47;;;;;;;;;;4961562;28;20451;-75
2023/06/17 10:24:43;;;;;;;4.60;3.70;;;;;;;;;;4955332;28;20441;-73
2023/06/17 10:27:10;;;;;;;3.90;3.20;;;;;;;;;;4971242;28;20886;-73
2023/06/17 10:29:37;;;;;;;4.18;3.70;;;;;;;;;;4965390;28;20507;-75
2023/06/17 10:32:10;;;;;;;4.38;3.95;;;;;;;;;;4965170;28;20933;-74
2023/06/17 10:34:37;;;;;;;4.25;3.85;;;;;;;;;;4957266;28;20443;-73
2023/06/17 10:37:06;;;;;;;3.92;3.50;;;;;;;;;;4960889;28;20444;-74
2023/06/17 10:39:33;;;;;;;4.80;4.40;;;;;;;;;;4962387;28;20422;-76
2023/06/17 10:42:02;;;;;;;3.47;3.17;;;;;;;;;;4965345;28;20529;-76
2023/06/17 10:44:30;;;;;;;3.63;3.15;;;;;;;;;;4965489;28;20433;-75
2023/06/17 10:46:57;;;;;;;3.17;2.88;;;;;;;;;;4971649;28;20428;-75
2023/06/17 10:49:24;;;;;;;3.40;3.10;;;;;;;;;;4963008;28;20462;-74
2023/06/17 10:51:52;;;;;;;3.78;3.47;;;;;;;;;;4962419;28;20661;-75
2023/06/17 10:54:28;;;;;;;3.90;3.40;;;;;;;;;;4960795;28;20752;-73
2023/06/17 10:56:55;;;;;;;3.95;3.55;;;;;;;;;;4974496;28;20523;-76
2023/06/17 10:59:26;;;;;;;3.57;2.90;;;;;;;;;;4970914;28;20964;-74
2023/06/17 11:01:53;;;;;;;3.40;3.10;;;;;;;;;;4968134;28;20420;-74
2023/06/17 11:04:21;;;;;;;2.80;2.60;;;;;;;;;;4964306;28;20892;-73
2023/06/17 11:06:49;;;;;;;3.77;3.40;;;;;;;;;;4964672;28;20884;-74
2023/06/17 11:09:16;;;;;;;3.45;2.80;;;;;;;;;;4967814;28;20436;-74
2023/06/17 11:11:44;;;;;;;3.97;3.20;;;;;;;;;;4958146;28;20492;-73
2023/06/17 11:14:11;;;;;;;3.20;2.90;;;;;;;;;;4968177;28;20459;-74
2023/06/17 11:16:38;;;;;;;3.10;2.80;;;;;;;;;;4962359;28;20444;-73
2023/06/17 11:19:07;;;;;;;4.10;3.70;;;;;;;;;;4957587;28;20478;-75
2023/06/17 11:21:35;;;;;;;3.53;3.15;;;;;;;;;;4959646;28;20447;-73
2023/06/17 11:24:02;;;;;;;4.65;3.20;;;;;;;;;;4962880;28;20448;-75
2023/06/17 11:26:29;;;;;;;3.88;2.70;;;;;;;;;;4960237;28;20868;-74
2023/06/17 11:28:58;;;;;;;4.40;3.10;;;;;;;;;;4956178;28;20934;-75
2023/06/17 11:31:26;;;;;;;3.40;3.10;;;;;;;;;;4963061;28;20432;-75
2023/06/17 11:33:59;;;;;;;4.20;3.00;;;;;;;;;;4955063;28;20434;-73
2023/06/17 11:36:26;;;;;;;3.00;2.80;;;;;;;;;;4958617;28;20452;-71
2023/06/17 11:38:53;;;;;;;4.50;2.80;;;;;;;;;;4966814;28;21024;-73
2023/06/17 11:41:20;;;;;;;3.00;2.80;;;;;;;;;;4965198;28;20528;-72
2023/06/17 11:43:47;;;;;;;2.70;2.50;;;;;;;;;;4965718;28;20420;-72
2023/06/17 11:46:19;;;;;;;6.78;2.90;;;;;;;;;;4963707;28;20424;-71
2023/06/17 11:48:47;;;;;;;3.20;2.50;;;;;;;;;;4947904;28;20852;-72
2023/06/17 11:51:15;;;;;;;2.70;2.30;;;;;;;;;;4960351;28;20773;-74
2023/06/17 11:53:45;;;;;;;2.40;2.20;;;;;;;;;;4970930;28;20917;-74
2023/06/17 11:56:12;;;;;;;2.40;2.00;;;;;;;;;;4947969;28;20430;-73
2023/06/17 11:58:40;;;;;;;2.40;2.20;;;;;;;;;;4958754;28;20471;-74
2023/06/17 12:01:08;;;;;;;2.42;2.20;;;;;;;;;;4956651;28;20483;-73
2023/06/17 12:03:37;;;;;;;2.75;2.47;;;;;;;;;;4950647;28;20431;-73
2023/06/17 12:06:04;;;;;;;3.65;2.40;;;;;;;;;;4971442;28;20572;-73
2023/06/17 12:08:33;;;;;;;2.22;2.03;;;;;;;;;;4957898;28;20469;-72
2023/06/17 12:11:00;;;;;;;2.40;2.20;;;;;;;;;;4967919;28;20465;-72
2023/06/17 12:13:38;;;;;;;2.75;2.42;;;;;;;;;;4959603;28;20536;-73
2023/06/17 12:16:05;;;;;;;2.92;2.00;;;;;;;;;;4967249;28;20517;-72
2023/06/17 12:18:32;;;;;;;2.58;2.38;;;;;;;;;;4962218;28;20478;-72
2023/06/17 12:21:01;;;;;;;2.60;2.00;;;;;;;;;;4973399;28;20462;-73
2023/06/17 12:23:28;;;;;;;2.20;2.00;;;;;;;;;;4959698;28;20437;-72
2023/06/17 12:25:55;;;;;;;2.63;2.10;;;;;;;;;;4959059;28;20428;-72
2023/06/17 12:28:23;;;;;;;2.30;2.20;;;;;;;;;;4957173;28;20422;-73
2023/06/17 12:30:50;;;;;;;2.40;1.90;;;;;;;;;;4967297;28;20446;-72
2023/06/17 12:33:17;;;;;;;2.07;1.97;;;;;;;;;;4968633;28;20420;-72
2023/06/17 12:35:44;;;;;;;2.70;2.50;;;;;;;;;;4963666;28;20935;-73
2023/06/17 12:38:13;;;;;;;2.92;2.70;;;;;;;;;;4957994;28;20559;-74
2023/06/17 12:40:40;;;;;;;3.07;2.10;;;;;;;;;;4957521;28;20765;-73
2023/06/17 12:43:07;;;;;;;2.03;1.83;;;;;;;;;;4952622;28;20416;-72
2023/06/17 12:45:34;;;;;;;1.70;1.60;;;;;;;;;;4961334;28;20844;-72
2023/06/17 12:48:03;;;;;;;2.00;1.80;;;;;;;;;;4978466;28;20415;-73
2023/06/17 12:50:30;;;;;;;2.20;2.00;;;;;;;;;;4970384;28;20477;-72
2023/06/17 12:52:57;;;;;;;1.80;1.70;;;;;;;;;;4960056;28;20441;-72
2023/06/17 12:55:25;;;;;;;1.70;1.60;;;;;;;;;;4957644;28;20442;-73
2023/06/17 12:57:52;;;;;;;2.20;1.80;;;;;;;;;;4956689;28;20448;-72
2023/06/17 13:00:19;;;;;;;1.60;1.50;;;;;;;;;;4960900;28;20535;-72
2023/06/17 13:02:46;;;;;;;2.40;1.90;;;;;;;;;;4973133;28;20939;-72
2023/06/17 13:05:13;;;;;;;1.98;1.88;;;;;;;;;;4970893;28;20465;-72
2023/06/17 13:07:41;;;;;;;1.40;1.30;;;;;;;;;;4955962;28;20775;-72
2023/06/17 13:10:09;;;;;;;1.65;1.50;;;;;;;;;;4957812;28;20426;-71
2023/06/17 13:12:37;;;;;;;1.40;1.30;;;;;;;;;;4957216;28;20569;-72
2023/06/17 13:15:05;;;;;;;1.60;1.50;;;;;;;;;;4950951;28;20450;-72
2023/06/17 13:17:32;;;;;;;2.35;1.60;;;;;;;;;;4957318;28;20428;-73
2023/06/17 13:19:59;;;;;;;2.00;1.80;;;;;;;;;;4967168;28;20947;-72
2023/06/17 13:22:27;;;;;;;3.50;1.90;;;;;;;;;;4967451;28;20457;-72
2023/06/17 13:24:54;;;;;;;2.00;1.80;;;;;;;;;;4945142;28;20515;-73
2023/06/17 13:27:21;;;;;;;2.80;1.85;;;;;;;;;;4963228;28;20868;-73
2023/06/17 13:29:49;;;;;;;2.55;2.00;;;;;;;;;;4956820;28;20792;-74
2023/06/17 13:32:16;;;;;;;2.20;2.00;;;;;;;;;;4958802;28;20449;-74
2023/06/17 13:34:44;;;;;;;2.65;2.00;;;;;;;;;;4968313;28;20615;-73
2023/06/17 13:37:11;;;;;;;3.88;2.05;;;;;;;;;;4971706;28;20426;-72
2023/06/17 13:39:40;;;;;;;2.70;1.80;;;;;;;;;;4962555;28;20440;-74
2023/06/17 13:42:07;;;;;;;2.17;1.90;;;;;;;;;;4949832;28;20422;-74
2023/06/17 13:44:35;;;;;;;2.77;2.30;;;;;;;;;;4963993;28;20735;-72
2023/06/17 13:47:03;;;;;;;3.60;2.53;;;;;;;;;;4963444;28;20538;-72
2023/06/17 13:49:31;;;;;;;2.83;2.10;;;;;;;;;;4970455;28;20438;-72
2023/06/17 13:51:59;;;;;;;2.63;2.42;;;;;;;;;;4964764;28;20876;-72
2023/06/17 13:54:27;;;;;;;2.60;2.22;;;;;;;;;;4960839;28;20556;-73
2023/06/17 13:56:54;;;;;;;3.65;2.15;;;;;;;;;;4961684;28;20435;-74
2023/06/17 13:59:23;;;;;;;2.30;1.50;;;;;;;;;;4962354;28;20447;-73
2023/06/17 14:01:50;;;;;;;2.30;1.70;;;;;;;;;;4950981;28;20512;-72
2023/06/17 14:04:18;;;;;;;2.60;1.80;;;;;;;;;;4965409;28;20443;-72
2023/06/17 14:06:46;;;;;;;2.63;2.03;;;;;;;;;;4972006;28;20732;-74
2023/06/17 14:09:13;;;;;;;2.42;1.70;;;;;;;;;;4970100;28;20456;-74
2023/06/17 14:11:41;;;;;;;2.55;2.17;;;;;;;;;;4962512;28;20503;-72
2023/06/17 14:14:08;;;;;;;2.40;2.10;;;;;;;;;;4951150;28;20445;-73
2023/06/17 14:16:35;;;;;;;2.67;1.92;;;;;;;;;;4962111;28;20890;-73
2023/06/17 14:19:02;;;;;;;3.00;1.80;;;;;;;;;;4969029;28;20444;-73
2023/06/17 14:21:31;;;;;;;3.40;1.87;;;;;;;;;;4968834;28;20790;-72
2023/06/17 14:24:05;;;;;;;2.50;2.00;;;;;;;;;;4971032;28;20805;-71
2023/06/17 14:26:32;;;;;;;2.40;1.90;;;;;;;;;;4954581;28;20437;-72
2023/06/17 14:28:59;;;;;;;3.60;2.10;;;;;;;;;;4944979;28;20422;-71
2023/06/17 14:31:26;;;;;;;3.10;2.10;;;;;;;;;;4959928;28;20783;-71
2023/06/17 14:33:54;;;;;;;2.80;2.00;;;;;;;;;;4974578;28;20449;-72
2023/06/17 14:36:21;;;;;;;3.35;2.83;;;;;;;;;;4969773;28;21049;-73
2023/06/17 14:38:50;;;;;;;2.20;2.00;;;;;;;;;;4971060;28;20458;-72
2023/06/17 14:41:17;;;;;;;2.50;1.90;;;;;;;;;;4957364;28;20580;-73